Amboy, Indiana
Current Conditions -  °F | °C
As of 2:55 PM on Wednesday 17 Dec 2014 (Local Time) from KOKK Reporting Station
Overcast Overcast  
Wind Chill: 12°   Ceiling: 900
Heat Index: 25°   Visibility: 9mi
Dew Point: 19°   Wind: 16mph
Humidity: 80%   Direction: 280°W
Pressure: 30.22"   Gusts: NA
Location:  40.6°N, 85.93°W
Report Text: KOKK 171955Z AUTO 28014KT 9SM OVC009 M04/M07 A3022 RMK AO1
Loading
Personal Weather Stations






























Interactive Weather Map New forecast layout! Learn more

10-Day Weather Forecast

Advertisements
Track Severe Weather on mobile